Terminal Aerodrome Forecast
Issued by NWS Lake Charles, LA

Home | Current Version | Previous Version | Text Only | Print | Product List | Glossary On
Versions: 1 2 3 4 5 6 7 8 9 10 11 12 13
780
FTUS44 KLCH 182332
TAFLFT
TAF
KLFT 182332Z 1900/1924 26010KT P6SM VCSH SCT035
     FM190200 30012KT P6SM VCSH BKN040
     FM190400 35015G24KT P6SM SCT050
     FM191000 01011KT P6SM SKC
     FM191400 02014G21KT P6SM SKC=

USA.gov is the U.S. government's official web portal to all federal, state and local government web resources and services.